Big Bear Station Historical Data
Daily Summary for February 7, 2019 Units:  Metric    English   Both
Next Day »
Daily Weekly Monthly Yearly Custom
  High: Low: Average:
Temperature: 2.3 °C -14.9 °C -7.8 °C
Dew Point: -2.3 °C -15.6 °C -9.3 °C
Humidity: 96% 71% 90%
Wind Speed: 6km/h 0km/h 0.6km/h
Wind Gust: -1607.7km/h - -
Wind- - West
Pressure: 796.7 hPa 794.4 hPa -
Precipitation: 0 mm    
Historical Graphs
 
 
Tabular Data for February 7, 2019
Time Temperature Dew Point Pressure Wind Wind Speed Wind Gust Humidity Rainfall Rate (Hourly)
00:14 -12.4 °C -13 °C 794.4 hPa Calm   -1607.7 km/h 95% 0 mm
00:29 -12.6 °C -13.2 °C 794.7 hPa Calm   -1607.7 km/h 95% 0 mm
00:44 -12.8 °C -13.4 °C 794.7 hPa Calm   -1607.7 km/h 95% 0 mm
01:00 -12.9 °C -13.5 °C 794.7 hPa Calm   -1607.7 km/h 95% 0 mm
01:15 -13 °C -13.6 °C 795 hPa Calm   -1607.7 km/h 95% 0 mm
01:30 -13.1 °C -13.9 °C 795 hPa Calm   -1607.7 km/h 94% 0 mm
01:45 -13.4 °C -14.2 °C 795 hPa Calm   -1607.7 km/h 94% 0 mm
02:01 -13.4 °C -14.2 °C 794.7 hPa Calm   -1607.7 km/h 94% 0 mm
02:16 -13.5 °C -14.3 °C 794.7 hPa Calm   -1607.7 km/h 94% 0 mm
02:31 -13.6 °C -14.4 °C 794.7 hPa Calm   -1607.7 km/h 94% 0 mm
02:46 -13.5 °C -14.1 °C 794.7 hPa Calm   -1607.7 km/h 95% 0 mm
03:01 -13.8 °C -14.6 °C 794.4 hPa Calm   -1607.7 km/h 94% 0 mm
03:17 -13.9 °C -14.7 °C 794.4 hPa Calm   -1607.7 km/h 94% 0 mm
03:32 -13.9 °C -14.7 °C 794.7 hPa Calm   -1607.7 km/h 94% 0 mm
03:47 -14.1 °C -14.9 °C 794.7 hPa Calm   -1607.7 km/h 94% 0 mm
04:02 -13.9 °C -14.7 °C 794.7 hPa Calm   -1607.7 km/h 94% 0 mm
04:17 -14.1 °C -14.9 °C 794.7 hPa Calm   -1607.7 km/h 94% 0 mm
04:33 -14.2 °C -15 °C 794.7 hPa Calm   -1607.7 km/h 94% 0 mm
04:48 -14.3 °C -15.1 °C 794.7 hPa Calm   -1607.7 km/h 94% 0 mm
05:03 -14.4 °C -15.2 °C 794.7 hPa Calm   -1607.7 km/h 94% 0 mm
05:18 -14.5 °C -15.3 °C 795 hPa Calm   -1607.7 km/h 94% 0 mm
05:33 -14.6 °C -15.4 °C 795 hPa Calm   -1607.7 km/h 94% 0 mm
05:49 -14.6 °C -15.4 °C 795 hPa Calm   -1607.7 km/h 94% 0 mm
06:04 -14.7 °C -15.5 °C 795 hPa Calm   -1607.7 km/h 94% 0 mm
06:19 -14.7 °C -15.5 °C 795 hPa Calm   -1607.7 km/h 94% 0 mm
06:34 -14.7 °C -15.5 °C 795.4 hPa Calm   -1607.7 km/h 94% 0 mm
06:49 -14.9 °C -15.6 °C 795.4 hPa Calm   -1607.7 km/h 94% 0 mm
07:05 -14.8 °C -15.6 °C 795.7 hPa Calm   -1607.7 km/h 94% 0 mm
07:20 -14.5 °C -15.3 °C 795.7 hPa Calm   -1607.7 km/h 94% 0 mm
07:35 -14.4 °C -15.2 °C 795.7 hPa Calm   -1607.7 km/h 94% 0 mm
07:50 -14 °C -14.8 °C 796 hPa Calm   -1607.7 km/h 94% 0 mm
08:06 -13.6 °C -14.4 °C 796 hPa Calm   -1607.7 km/h 94% 0 mm
08:21 -13.4 °C -14.3 °C 796 hPa Calm   -1607.7 km/h 93% 0 mm
08:36 -12.7 °C -13.6 °C 796 hPa Calm   -1607.7 km/h 93% 0 mm
08:51 -11.7 °C -12.6 °C 796.4 hPa Calm   -1607.7 km/h 93% 0 mm
09:06 -10.7 °C -11.5 °C 796.4 hPa Calm   -1607.7 km/h 94% 0 mm
09:22 -9.9 °C -10.8 °C 796.4 hPa Calm   -1607.7 km/h 93% 0 mm
09:37 -9 °C -9.8 °C 796.4 hPa Calm   -1607.7 km/h 94% 0 mm
09:52 -8.1 °C -8.9 °C 796.4 hPa Calm   -1607.7 km/h 94% 0 mm
10:07 -6.7 °C -7.5 °C 796.4 hPa Calm   -1607.7 km/h 94% 0 mm
10:22 -5.2 °C -5.9 °C 796.7 hPa Calm   -1607.7 km/h 95% 0 mm
10:38 -3.8 °C -5.1 °C 796.4 hPa Calm   -1607.7 km/h 91% 0 mm
10:53 -2.6 °C -4.6 °C 796.4 hPa Calm   -1607.7 km/h 86% 0 mm
11:08 -1.1 °C -4.8 °C 796.4 hPa West 3.5 km/h -1607.7 km/h 76% 0 mm
11:23 -0.3 °C -4.2 °C 796.4 hPa NNW 5.1 km/h -1607.7 km/h 75% 0 mm
11:38 -0.1 °C -3.7 °C 796.4 hPa Calm   -1607.7 km/h 77% 0 mm
11:54 0.1 °C -3.3 °C 796 hPa NW 3.5 km/h -1607.7 km/h 78% 0 mm
12:09 0.9 °C -3.1 °C 796 hPa NW 4.3 km/h -1607.7 km/h 75% 0 mm
12:25 1.8 °C -2.6 °C 796 hPa Calm   -1607.7 km/h 73% 0 mm
12:40 2.3 °C -2.3 °C 795.7 hPa Calm   -1607.7 km/h 72% 0 mm
12:55 2.2 °C -2.5 °C 795.7 hPa WNW 3.5 km/h -1607.7 km/h 71% 0 mm
13:11 1.3 °C -3.2 °C 795.7 hPa Calm   -1607.7 km/h 72% 0 mm
13:26 0.9 °C -3.1 °C 795.4 hPa NNE 2.7 km/h -1607.7 km/h 75% 0 mm
13:41 0.3 °C -3.4 °C 795.4 hPa WNW 4.3 km/h -1607.7 km/h 76% 0 mm
13:56 0 °C -3.2 °C 795.4 hPa NW 4.3 km/h -1607.7 km/h 79% 0 mm
14:11 0.4 °C -3 °C 795.4 hPa Calm   -1607.7 km/h 78% 0 mm
14:27 0.3 °C -3.1 °C 795.4 hPa NNW 4.3 km/h -1607.7 km/h 78% 0 mm
14:42 -0.4 °C -3.3 °C 795 hPa WNW 4.3 km/h -1607.7 km/h 81% 0 mm
14:57 -0.5 °C -3.3 °C 795 hPa NNE 6 km/h -1607.7 km/h 81% 0 mm
15:12 -0.7 °C -3.6 °C 795 hPa NW 2.7 km/h -1607.7 km/h 81% 0 mm
15:28 -0.8 °C -3.8 °C 795 hPa NW 4.3 km/h -1607.7 km/h 80% 0 mm
15:43 -0.9 °C -4.1 °C 795 hPa NW 5.1 km/h -1607.7 km/h 79% 0 mm
15:58 -1.1 °C -3.9 °C 795 hPa WNW 1.8 km/h -1607.7 km/h 81% 0 mm
16:13 -1.5 °C -4 °C 795 hPa Calm   -1607.7 km/h 83% 0 mm
16:28 -1.7 °C -3.9 °C 795 hPa Calm   -1607.7 km/h 85% 0 mm
16:44 -2.1 °C -4.1 °C 795 hPa Calm   -1607.7 km/h 86% 0 mm
16:59 -2.6 °C -4.5 °C 795 hPa Calm   -1607.7 km/h 87% 0 mm
17:14 -3 °C -4.7 °C 795 hPa Calm   -1607.7 km/h 88% 0 mm
17:29 -3.6 °C -5.2 °C 795 hPa Calm   -1607.7 km/h 89% 0 mm
17:44 -4.2 °C -5.6 °C 795 hPa Calm   -1607.7 km/h 90% 0 mm
18:00 -4.4 °C -5.6 °C 795 hPa Calm   -1607.7 km/h 91% 0 mm
18:15 -4.8 °C -6 °C 795 hPa Calm   -1607.7 km/h 91% 0 mm
18:30 -5.2 °C -6.3 °C 795 hPa Calm   -1607.7 km/h 92% 0 mm
18:45 -5.5 °C -6.6 °C 795.4 hPa Calm   -1607.7 km/h 92% 0 mm
19:00 -5.8 °C -6.7 °C 795.4 hPa Calm   -1607.7 km/h 93% 0 mm
19:16 -6.1 °C -7.1 °C 795.4 hPa Calm   -1607.7 km/h 93% 0 mm
19:31 -6.2 °C -6.9 °C 795.7 hPa Calm   -1607.7 km/h 95% 0 mm
19:46 -6.4 °C -7.1 °C 795.7 hPa Calm   -1607.7 km/h 95% 0 mm
20:01 -6.6 °C -7.4 °C 795.7 hPa Calm   -1607.7 km/h 94% 0 mm
20:17 -7 °C -7.8 °C 796 hPa Calm   -1607.7 km/h 94% 0 mm
20:32 -7.3 °C -8.1 °C 796 hPa Calm   -1607.7 km/h 94% 0 mm
20:47 -7.7 °C -8.5 °C 796 hPa Calm   -1607.7 km/h 94% 0 mm
21:02 -7.8 °C -8.6 °C 796 hPa Calm   -1607.7 km/h 94% 0 mm
21:17 -8 °C -8.8 °C 796 hPa Calm   -1607.7 km/h 94% 0 mm
21:33 -8.3 °C -8.9 °C 796 hPa Calm   -1607.7 km/h 95% 0 mm
21:48 -8.7 °C -9.4 °C 796 hPa Calm   -1607.7 km/h 95% 0 mm
22:03 -8.7 °C -9.4 °C 796 hPa Calm   -1607.7 km/h 95% 0 mm
22:18 -8.9 °C -9.6 °C 795.7 hPa Calm   -1607.7 km/h 95% 0 mm
22:33 -9.2 °C -9.9 °C 795.4 hPa Calm   -1607.7 km/h 95% 0 mm
22:49 -9.1 °C -9.8 °C 795.4 hPa Calm   -1607.7 km/h 95% 0 mm
23:04 -9.4 °C -10.1 °C 795.4 hPa Calm   -1607.7 km/h 95% 0 mm
23:19 -9.5 °C -10 °C 795.4 hPa Calm   -1607.7 km/h 96% 0 mm
23:34 -9.8 °C -10.4 °C 795.4 hPa Calm   -1607.7 km/h 95% 0 mm
23:49 -10 °C -10.7 °C 795 hPa Calm   -1607.7 km/h 95% 0 mm
Big Bear CA Weather